Terminal Aerodrome Forecast
Issued by NWS Bismarck, ND

Home | Current Version | Previous Version | Text Only | Print | Product List | Glossary Off
Versions: 1 2 3 4 5 6 7 8 9 10 11 12 13 14 15 16 17

000
FTUS43 KBIS 311134
TAFISN
TAF
KISN 311134Z 3112/0112 34015G25KT P6SM VCTS SCT080CB OVC150
     FM311500 28017G23KT P6SM FEW250
     FM312100 26014G20KT P6SM SKC
     FM010200 24005KT P6SM SKC=

USA.gov is the U.S. government's official web portal to all federal, state and local government web resources and services.